Archival Weather

Chicago O'Hare International

Chicago, Illinois (KORD)

Report from: Wednesday, January 25, 2023 6:51 AM CST
Current time: Monday, February 6, 2023 1:05 AM CST

Current weather
Weather history
Weather forecast

Present weatherLight snow, mist
Temperature0.0°C (32.0°F)
Wind chill-4.0°C (24.8°F)
Dew point-1.7°C (28.9°F)
Winds 7 kts (3.6 m/s, 8.1 mph) North-Northeast (30°)
Visibility0.8 mi. (1.2 km)
Clouds Ceiling: Broken clouds 400 ft. (122 m)
Overcast 800 ft. (244 m)
Altimeter29.80 in.Hg (1009 mB)
Precipitiation0.03 in. (1 mm)
Relative humidity88 %
Density altitude-1,610 ft. (-491 m)
Sea-level pressure101.0 kPa (1010 mB, 29.82 in.Hg)
Remarks Automated weather observing station with precipitation discriminator
Flight conditions Low Instrument Meteorological Conditions
Raw dataKORD 251251Z 03007KT 3/4SM R10L/P6000FT -SN BR BKN004 OVC008 00/M02 A2980 RMK AO2 SLP098 P0003 T00001017
An error has occurred. This application may no longer respond until reloaded. Reload 🗙